sensor_id;sensor_type;location;lat;lon;timestamp;pressure;altitude;pressure_sealevel;temperature;humidity
62592;BME280;48659;41.622;2.276;2022-11-30T00:01:41;99892.58;;;5.62;59.47
62592;BME280;48659;41.622;2.276;2022-11-30T00:04:08;99893.38;;;6.89;56.97
62592;BME280;48659;41.622;2.276;2022-11-30T00:06:41;99880.81;;;6.42;55.46
62592;BME280;48659;41.622;2.276;2022-11-30T00:09:08;99881.22;;;6.20;56.92
62592;BME280;48659;41.622;2.276;2022-11-30T00:11:35;99879.10;;;6.51;58.43
62592;BME280;48659;41.622;2.276;2022-11-30T00:14:04;99879.04;;;5.95;60.33
62592;BME280;48659;41.622;2.276;2022-11-30T00:16:30;99873.95;;;6.07;58.49
62592;BME280;48659;41.622;2.276;2022-11-30T00:18:58;99873.46;;;5.76;59.84
62592;BME280;48659;41.622;2.276;2022-11-30T00:21:26;99867.65;;;5.28;61.15
62592;BME280;48659;41.622;2.276;2022-11-30T00:23:53;99858.91;;;7.20;56.78
62592;BME280;48659;41.622;2.276;2022-11-30T00:26:20;99867.82;;;6.39;57.66
62592;BME280;48659;41.622;2.276;2022-11-30T00:28:48;99871.03;;;5.45;60.44
62592;BME280;48659;41.622;2.276;2022-11-30T00:31:16;99875.73;;;5.66;59.83
62592;BME280;48659;41.622;2.276;2022-11-30T00:33:44;99871.74;;;5.20;60.87
62592;BME280;48659;41.622;2.276;2022-11-30T00:36:13;99871.56;;;4.09;63.42
62592;BME280;48659;41.622;2.276;2022-11-30T00:38:41;99865.68;;;5.47;60.78
62592;BME280;48659;41.622;2.276;2022-11-30T00:41:14;99869.95;;;5.64;60.52
62592;BME280;48659;41.622;2.276;2022-11-30T00:43:42;99874.03;;;5.48;60.19
62592;BME280;48659;41.622;2.276;2022-11-30T00:46:09;99877.04;;;6.24;57.29
62592;BME280;48659;41.622;2.276;2022-11-30T00:48:39;99877.17;;;5.07;58.29
62592;BME280;48659;41.622;2.276;2022-11-30T00:51:08;99875.72;;;5.79;58.36
62592;BME280;48659;41.622;2.276;2022-11-30T00:53:36;99870.07;;;7.24;54.73
62592;BME280;48659;41.622;2.276;2022-11-30T00:56:05;99871.56;;;7.18;54.85
62592;BME280;48659;41.622;2.276;2022-11-30T00:58:32;99873.80;;;4.97;59.88
62592;BME280;48659;41.622;2.276;2022-11-30T01:01:00;99869.06;;;5.52;59.62
62592;BME280;48659;41.622;2.276;2022-11-30T01:03:36;99863.91;;;4.35;60.12
62592;BME280;48659;41.622;2.276;2022-11-30T01:06:07;99865.82;;;4.87;62.28
62592;BME280;48659;41.622;2.276;2022-11-30T01:08:35;99869.19;;;4.23;61.90
62592;BME280;48659;41.622;2.276;2022-11-30T01:11:05;99875.09;;;4.52;63.65
62592;BME280;48659;41.622;2.276;2022-11-30T01:13:34;99883.52;;;5.74;59.82
62592;BME280;48659;41.622;2.276;2022-11-30T01:16:08;99879.85;;;6.36;57.07
62592;BME280;48659;41.622;2.276;2022-11-30T01:18:36;99882.46;;;6.32;56.29
62592;BME280;48659;41.622;2.276;2022-11-30T01:21:05;99884.94;;;5.09;61.92
62592;BME280;48659;41.622;2.276;2022-11-30T01:23:32;99876.29;;;4.81;61.85
62592;BME280;48659;41.622;2.276;2022-11-30T01:26:00;99879.26;;;4.17;64.33
62592;BME280;48659;41.622;2.276;2022-11-30T01:28:34;99883.68;;;4.92;60.53
62592;BME280;48659;41.622;2.276;2022-11-30T01:31:04;99883.52;;;7.20;56.14
62592;BME280;48659;41.622;2.276;2022-11-30T01:33:32;99892.53;;;7.29;54.34
62592;BME280;48659;41.622;2.276;2022-11-30T01:36:01;99900.98;;;6.44;55.48
62592;BME280;48659;41.622;2.276;2022-11-30T01:38:32;99903.73;;;5.63;57.72
62592;BME280;48659;41.622;2.276;2022-11-30T01:41:00;99900.46;;;6.45;57.63
62592;BME280;48659;41.622;2.276;2022-11-30T01:43:42;99892.81;;;5.03;59.58
62592;BME280;48659;41.622;2.276;2022-11-30T01:46:21;99884.74;;;5.07;61.02
62592;BME280;48659;41.622;2.276;2022-11-30T01:48:57;99888.63;;;5.70;57.67
62592;BME280;48659;41.622;2.276;2022-11-30T01:51:37;99891.96;;;5.94;56.25
62592;BME280;48659;41.622;2.276;2022-11-30T01:54:09;99897.14;;;6.78;54.86
62592;BME280;48659;41.622;2.276;2022-11-30T01:56:39;99910.43;;;5.79;56.38
62592;BME280;48659;41.622;2.276;2022-11-30T01:59:31;99910.75;;;6.06;56.35
62592;BME280;48659;41.622;2.276;2022-11-30T02:01:58;99899.90;;;6.03;54.17
62592;BME280;48659;41.622;2.276;2022-11-30T02:04:35;99900.41;;;4.31;58.86
62592;BME280;48659;41.622;2.276;2022-11-30T02:07:05;99897.63;;;4.77;59.49
62592;BME280;48659;41.622;2.276;2022-11-30T02:09:39;99900.17;;;3.68;62.35
62592;BME280;48659;41.622;2.276;2022-11-30T02:12:19;99895.28;;;5.47;59.88
62592;BME280;48659;41.622;2.276;2022-11-30T02:14:53;99898.90;;;6.51;56.46
62592;BME280;48659;41.622;2.276;2022-11-30T02:17:36;99895.75;;;7.97;53.35
62592;BME280;48659;41.622;2.276;2022-11-30T02:20:26;99901.46;;;6.75;54.84
62592;BME280;48659;41.622;2.276;2022-11-30T02:23:08;99908.56;;;6.13;56.77
62592;BME280;48659;41.622;2.276;2022-11-30T02:25:50;99907.20;;;4.43;59.08
62592;BME280;48659;41.622;2.276;2022-11-30T02:28:39;99897.14;;;6.89;53.09
62592;BME280;48659;41.622;2.276;2022-11-30T02:31:16;99901.38;;;5.83;57.18
62592;BME280;48659;41.622;2.276;2022-11-30T02:33:47;99891.30;;;7.33;53.09
62592;BME280;48659;41.622;2.276;2022-11-30T02:36:17;99892.64;;;6.43;55.35
62592;BME280;48659;41.622;2.276;2022-11-30T02:38:45;99891.93;;;7.65;51.66
62592;BME280;48659;41.622;2.276;2022-11-30T02:41:13;99890.29;;;6.57;54.47
62592;BME280;48659;41.622;2.276;2022-11-30T02:43:40;99887.53;;;7.34;53.23
62592;BME280;48659;41.622;2.276;2022-11-30T02:46:13;99884.66;;;8.04;51.55
62592;BME280;48659;41.622;2.276;2022-11-30T02:48:45;99883.25;;;7.66;52.71
62592;BME280;48659;41.622;2.276;2022-11-30T02:51:18;99881.97;;;7.54;52.61
62592;BME280;48659;41.622;2.276;2022-11-30T02:53:47;99883.38;;;7.80;51.60
62592;BME280;48659;41.622;2.276;2022-11-30T02:56:16;99881.09;;;8.21;50.32
62592;BME280;48659;41.622;2.276;2022-11-30T02:58:45;99879.36;;;8.41;50.54
62592;BME280;48659;41.622;2.276;2022-11-30T03:01:13;99876.12;;;7.70;50.57
62592;BME280;48659;41.622;2.276;2022-11-30T03:03:42;99875.82;;;8.15;49.16
62592;BME280;48659;41.622;2.276;2022-11-30T03:06:10;99870.68;;;9.01;48.07
62592;BME280;48659;41.622;2.276;2022-11-30T03:08:38;99873.00;;;7.94;49.27
62592;BME280;48659;41.622;2.276;2022-11-30T03:11:05;99869.12;;;8.21;49.08
62592;BME280;48659;41.622;2.276;2022-11-30T03:13:34;99867.53;;;7.38;50.54
62592;BME280;48659;41.622;2.276;2022-11-30T03:16:05;99864.59;;;7.68;50.56
62592;BME280;48659;41.622;2.276;2022-11-30T03:18:35;99867.61;;;7.32;50.97
62592;BME280;48659;41.622;2.276;2022-11-30T03:21:05;99875.76;;;6.81;52.13
62592;BME280;48659;41.622;2.276;2022-11-30T03:23:33;99874.66;;;5.95;53.83
62592;BME280;48659;41.622;2.276;2022-11-30T03:26:06;99876.37;;;5.17;57.18
62592;BME280;48659;41.622;2.276;2022-11-30T03:28:36;99863.70;;;4.62;59.09
62592;BME280;48659;41.622;2.276;2022-11-30T03:31:04;99869.18;;;3.31;62.35
62592;BME280;48659;41.622;2.276;2022-11-30T03:33:40;99873.85;;;2.03;66.56
62592;BME280;48659;41.622;2.276;2022-11-30T03:36:10;99878.37;;;3.48;63.79
62592;BME280;48659;41.622;2.276;2022-11-30T03:38:38;99872.60;;;3.66;62.81
62592;BME280;48659;41.622;2.276;2022-11-30T03:41:09;99864.89;;;4.94;58.87
62592;BME280;48659;41.622;2.276;2022-11-30T03:43:37;99852.26;;;6.52;53.44
62592;BME280;48659;41.622;2.276;2022-11-30T03:46:05;99856.56;;;4.88;58.00
62592;BME280;48659;41.622;2.276;2022-11-30T03:48:34;99856.64;;;4.82;57.78
62592;BME280;48659;41.622;2.276;2022-11-30T03:51:02;99854.27;;;6.50;53.41
62592;BME280;48659;41.622;2.276;2022-11-30T03:53:31;99862.97;;;4.21;59.36
62592;BME280;48659;41.622;2.276;2022-11-30T03:56:01;99863.94;;;5.72;55.52
62592;BME280;48659;41.622;2.276;2022-11-30T03:58:38;99862.29;;;6.44;52.20
62592;BME280;48659;41.622;2.276;2022-11-30T04:01:09;99866.24;;;7.11;50.95
62592;BME280;48659;41.622;2.276;2022-11-30T04:03:38;99871.39;;;7.17;50.50
62592;BME280;48659;41.622;2.276;2022-11-30T04:06:07;99869.72;;;7.53;50.48
62592;BME280;48659;41.622;2.276;2022-11-30T04:08:36;99866.26;;;7.12;50.41
62592;BME280;48659;41.622;2.276;2022-11-30T04:11:05;99864.97;;;7.13;50.46
62592;BME280;48659;41.622;2.276;2022-11-30T04:13:40;99870.35;;;7.36;49.43
62592;BME280;48659;41.622;2.276;2022-11-30T04:16:08;99881.82;;;4.44;55.89
62592;BME280;48659;41.622;2.276;2022-11-30T04:18:37;99875.37;;;3.81;57.29
62592;BME280;48659;41.622;2.276;2022-11-30T04:21:06;99869.35;;;5.65;55.67
62592;BME280;48659;41.622;2.276;2022-11-30T04:23:37;99867.50;;;5.30;55.65
62592;BME280;48659;41.622;2.276;2022-11-30T04:26:07;99859.79;;;7.07;52.55
62592;BME280;48659;41.622;2.276;2022-11-30T04:28:40;99857.92;;;6.08;51.50
62592;BME280;48659;41.622;2.276;2022-11-30T04:31:08;99854.91;;;6.16;53.30
62592;BME280;48659;41.622;2.276;2022-11-30T04:33:37;99852.88;;;5.79;53.64
62592;BME280;48659;41.622;2.276;2022-11-30T04:36:13;99858.26;;;5.05;55.32
62592;BME280;48659;41.622;2.276;2022-11-30T04:38:42;99854.30;;;5.70;52.57
62592;BME280;48659;41.622;2.276;2022-11-30T04:41:11;99867.12;;;4.31;56.75
62592;BME280;48659;41.622;2.276;2022-11-30T04:43:39;99870.99;;;3.14;58.84
62592;BME280;48659;41.622;2.276;2022-11-30T04:46:07;99872.44;;;3.01;61.07
62592;BME280;48659;41.622;2.276;2022-11-30T04:48:35;99872.74;;;3.43;61.07
62592;BME280;48659;41.622;2.276;2022-11-30T04:51:05;99880.02;;;2.27;63.29
62592;BME280;48659;41.622;2.276;2022-11-30T04:53:39;99876.36;;;3.50;58.96
62592;BME280;48659;41.622;2.276;2022-11-30T04:56:07;99880.56;;;3.61;60.81
62592;BME280;48659;41.622;2.276;2022-11-30T04:58:36;99886.93;;;2.62;62.05
62592;BME280;48659;41.622;2.276;2022-11-30T05:01:06;99886.65;;;3.83;61.97
62592;BME280;48659;41.622;2.276;2022-11-30T05:03:35;99884.88;;;4.65;58.66
62592;BME280;48659;41.622;2.276;2022-11-30T05:06:03;99887.77;;;4.95;57.45
62592;BME280;48659;41.622;2.276;2022-11-30T05:08:32;99891.48;;;4.04;56.92
62592;BME280;48659;41.622;2.276;2022-11-30T05:11:00;99899.49;;;4.27;57.17
62592;BME280;48659;41.622;2.276;2022-11-30T05:13:28;99901.75;;;4.40;57.75
62592;BME280;48659;41.622;2.276;2022-11-30T05:15:57;99904.54;;;3.39;61.41
62592;BME280;48659;41.622;2.276;2022-11-30T05:18:25;99906.67;;;3.28;61.96
62592;BME280;48659;41.622;2.276;2022-11-30T05:20:53;99901.52;;;4.50;59.90
62592;BME280;48659;41.622;2.276;2022-11-30T05:23:21;99899.35;;;5.52;57.37
62592;BME280;48659;41.622;2.276;2022-11-30T05:25:49;99897.01;;;6.77;52.47
62592;BME280;48659;41.622;2.276;2022-11-30T05:28:17;99892.66;;;6.81;51.10
62592;BME280;48659;41.622;2.276;2022-11-30T05:30:45;99899.61;;;6.51;51.85
62592;BME280;48659;41.622;2.276;2022-11-30T05:33:13;99899.04;;;7.35;49.35
62592;BME280;48659;41.622;2.276;2022-11-30T05:35:46;99899.61;;;7.22;49.60
62592;BME280;48659;41.622;2.276;2022-11-30T05:38:13;99901.42;;;7.68;48.88
62592;BME280;48659;41.622;2.276;2022-11-30T05:40:42;99898.54;;;7.05;48.38
62592;BME280;48659;41.622;2.276;2022-11-30T05:43:10;99897.29;;;6.00;51.07
62592;BME280;48659;41.622;2.276;2022-11-30T05:45:39;99904.05;;;4.92;56.32
62592;BME280;48659;41.622;2.276;2022-11-30T05:48:07;99902.33;;;5.93;54.47
62592;BME280;48659;41.622;2.276;2022-11-30T05:50:35;99912.12;;;4.73;56.05
62592;BME280;48659;41.622;2.276;2022-11-30T05:53:04;99914.67;;;5.84;54.57
62592;BME280;48659;41.622;2.276;2022-11-30T05:55:44;99916.42;;;5.08;55.56
62592;BME280;48659;41.622;2.276;2022-11-30T05:58:12;99914.05;;;5.09;56.94
62592;BME280;48659;41.622;2.276;2022-11-30T06:00:41;99911.47;;;5.79;53.58
62592;BME280;48659;41.622;2.276;2022-11-30T06:03:09;99909.18;;;6.45;53.32
62592;BME280;48659;41.622;2.276;2022-11-30T06:05:37;99914.33;;;5.34;54.83
62592;BME280;48659;41.622;2.276;2022-11-30T06:08:05;99912.10;;;6.44;52.98
62592;BME280;48659;41.622;2.276;2022-11-30T06:10:33;99908.60;;;6.34;51.71
62592;BME280;48659;41.622;2.276;2022-11-30T06:13:06;99914.65;;;5.20;55.64
62592;BME280;48659;41.622;2.276;2022-11-30T06:15:35;99913.89;;;3.76;58.02
62592;BME280;48659;41.622;2.276;2022-11-30T06:18:05;99916.34;;;4.68;56.58
62592;BME280;48659;41.622;2.276;2022-11-30T06:20:34;99912.39;;;4.98;55.56
62592;BME280;48659;41.622;2.276;2022-11-30T06:23:03;99913.42;;;4.41;58.63
62592;BME280;48659;41.622;2.276;2022-11-30T06:25:40;99914.47;;;2.95;60.99
62592;BME280;48659;41.622;2.276;2022-11-30T06:28:08;99910.06;;;4.66;60.52
62592;BME280;48659;41.622;2.276;2022-11-30T06:30:36;99911.81;;;3.64;59.94
62592;BME280;48659;41.622;2.276;2022-11-30T06:33:04;99908.23;;;4.47;57.73
62592;BME280;48659;41.622;2.276;2022-11-30T06:35:32;99914.02;;;3.93;60.30
62592;BME280;48659;41.622;2.276;2022-11-30T06:38:01;99914.71;;;3.91;61.15
62592;BME280;48659;41.622;2.276;2022-11-30T06:40:30;99908.68;;;5.27;57.72
62592;BME280;48659;41.622;2.276;2022-11-30T06:42:58;99910.15;;;4.80;59.24
62592;BME280;48659;41.622;2.276;2022-11-30T06:45:26;99911.29;;;4.21;60.48
62592;BME280;48659;41.622;2.276;2022-11-30T06:47:54;99917.41;;;3.27;61.14
62592;BME280;48659;41.622;2.276;2022-11-30T06:50:23;99925.83;;;2.31;64.25
62592;BME280;48659;41.622;2.276;2022-11-30T06:52:50;99926.70;;;2.82;62.21
62592;BME280;48659;41.622;2.276;2022-11-30T06:55:19;99928.64;;;4.03;60.55
62592;BME280;48659;41.622;2.276;2022-11-30T06:57:47;99930.35;;;2.96;62.42
62592;BME280;48659;41.622;2.276;2022-11-30T07:00:15;99928.82;;;4.16;60.46
62592;BME280;48659;41.622;2.276;2022-11-30T07:02:44;99925.10;;;4.77;57.72
62592;BME280;48659;41.622;2.276;2022-11-30T07:05:12;99931.71;;;4.52;60.49
62592;BME280;48659;41.622;2.276;2022-11-30T07:07:41;99930.85;;;4.47;59.03
62592;BME280;48659;41.622;2.276;2022-11-30T07:10:10;99936.30;;;4.31;59.58
62592;BME280;48659;41.622;2.276;2022-11-30T07:12:39;99927.82;;;4.03;59.06
62592;BME280;48659;41.622;2.276;2022-11-30T07:15:08;99928.89;;;3.64;61.72
62592;BME280;48659;41.622;2.276;2022-11-30T07:17:40;99931.59;;;2.92;60.21
62592;BME280;48659;41.622;2.276;2022-11-30T07:20:08;99926.36;;;4.46;57.45
62592;BME280;48659;41.622;2.276;2022-11-30T07:22:40;99922.64;;;5.60;53.44
62592;BME280;48659;41.622;2.276;2022-11-30T07:25:09;99925.11;;;6.14;52.18
62592;BME280;48659;41.622;2.276;2022-11-30T07:27:39;99921.50;;;6.23;50.27
62592;BME280;48659;41.622;2.276;2022-11-30T07:30:08;99919.93;;;7.23;49.50
62592;BME280;48659;41.622;2.276;2022-11-30T07:32:38;99925.11;;;5.83;50.63
62592;BME280;48659;41.622;2.276;2022-11-30T07:35:07;99932.85;;;5.14;54.06
62592;BME280;48659;41.622;2.276;2022-11-30T07:37:35;99933.63;;;5.61;52.78
62592;BME280;48659;41.622;2.276;2022-11-30T07:40:03;99932.46;;;7.04;51.22
62592;BME280;48659;41.622;2.276;2022-11-30T07:42:32;99935.60;;;6.30;51.40
62592;BME280;48659;41.622;2.276;2022-11-30T07:44:59;99939.30;;;5.51;53.68
62592;BME280;48659;41.622;2.276;2022-11-30T07:47:27;99940.04;;;5.41;55.22
62592;BME280;48659;41.622;2.276;2022-11-30T07:49:55;99947.60;;;4.21;57.59
62592;BME280;48659;41.622;2.276;2022-11-30T07:52:23;99952.35;;;3.68;60.20
62592;BME280;48659;41.622;2.276;2022-11-30T07:54:52;99953.58;;;3.17;61.55
62592;BME280;48659;41.622;2.276;2022-11-30T07:57:19;99952.87;;;3.98;60.03
62592;BME280;48659;41.622;2.276;2022-11-30T07:59:48;99953.04;;;3.18;61.41
62592;BME280;48659;41.622;2.276;2022-11-30T08:02:16;99947.91;;;4.70;58.62
62592;BME280;48659;41.622;2.276;2022-11-30T08:04:44;99946.32;;;4.90;55.89
62592;BME280;48659;41.622;2.276;2022-11-30T08:07:12;99943.23;;;4.48;56.40
62592;BME280;48659;41.622;2.276;2022-11-30T08:09:40;99940.09;;;5.20;55.14
62592;BME280;48659;41.622;2.276;2022-11-30T08:12:10;99943.76;;;5.09;55.59
62592;BME280;48659;41.622;2.276;2022-11-30T08:14:41;99945.77;;;5.32;54.64
62592;BME280;48659;41.622;2.276;2022-11-30T08:17:09;99948.10;;;5.33;54.67
62592;BME280;48659;41.622;2.276;2022-11-30T08:19:37;99950.88;;;5.64;53.69
62592;BME280;48659;41.622;2.276;2022-11-30T08:22:05;99952.88;;;5.93;54.12
62592;BME280;48659;41.622;2.276;2022-11-30T08:24:38;99948.54;;;6.86;50.02
62592;BME280;48659;41.622;2.276;2022-11-30T08:27:06;99953.84;;;7.27;49.32
62592;BME280;48659;41.622;2.276;2022-11-30T08:29:41;99954.24;;;6.29;49.80
62592;BME280;48659;41.622;2.276;2022-11-30T08:32:09;99955.56;;;7.03;48.97
62592;BME280;48659;41.622;2.276;2022-11-30T08:34:37;99951.46;;;8.33;46.18
62592;BME280;48659;41.622;2.276;2022-11-30T08:37:05;99949.37;;;9.41;44.46
62592;BME280;48659;41.622;2.276;2022-11-30T08:39:40;99950.20;;;8.87;44.43
62592;BME280;48659;41.622;2.276;2022-11-30T08:42:08;99950.50;;;8.77;46.40
62592;BME280;48659;41.622;2.276;2022-11-30T08:44:36;99955.84;;;7.30;48.02
62592;BME280;48659;41.622;2.276;2022-11-30T08:47:04;99952.11;;;6.25;50.18
62592;BME280;48659;41.622;2.276;2022-11-30T08:49:32;99949.24;;;8.42;47.87
62592;BME280;48659;41.622;2.276;2022-11-30T08:52:00;99944.00;;;9.54;45.98
62592;BME280;48659;41.622;2.276;2022-11-30T08:54:29;99946.36;;;8.32;48.07
62592;BME280;48659;41.622;2.276;2022-11-30T08:56:56;99947.43;;;7.02;50.92
62592;BME280;48659;41.622;2.276;2022-11-30T08:59:25;99943.45;;;7.22;51.31
62592;BME280;48659;41.622;2.276;2022-11-30T09:01:53;99943.79;;;7.95;50.53
62592;BME280;48659;41.622;2.276;2022-11-30T09:04:21;99944.21;;;8.78;48.72
62592;BME280;48659;41.622;2.276;2022-11-30T09:06:50;99946.97;;;7.51;49.01
62592;BME280;48659;41.622;2.276;2022-11-30T09:09:18;99952.56;;;8.32;51.32
62592;BME280;48659;41.622;2.276;2022-11-30T09:11:46;99946.82;;;8.55;47.53
62592;BME280;48659;41.622;2.276;2022-11-30T09:14:14;99947.02;;;8.13;49.99
62592;BME280;48659;41.622;2.276;2022-11-30T09:16:41;99952.23;;;6.70;54.88
62592;BME280;48659;41.622;2.276;2022-11-30T09:19:09;99948.38;;;8.47;50.32
62592;BME280;48659;41.622;2.276;2022-11-30T09:21:37;99949.16;;;9.36;46.57
62592;BME280;48659;41.622;2.276;2022-11-30T09:24:05;99948.63;;;10.22;45.94
62592;BME280;48659;41.622;2.276;2022-11-30T09:26:34;99951.19;;;10.58;45.28
62592;BME280;48659;41.622;2.276;2022-11-30T09:29:03;99952.37;;;11.23;44.65
62592;BME280;48659;41.622;2.276;2022-11-30T09:31:39;99946.27;;;11.00;44.83
62592;BME280;48659;41.622;2.276;2022-11-30T09:34:08;99948.63;;;11.16;43.94
62592;BME280;48659;41.622;2.276;2022-11-30T09:36:38;99956.51;;;10.21;45.06
62592;BME280;48659;41.622;2.276;2022-11-30T09:39:09;99947.21;;;11.64;43.34
62592;BME280;48659;41.622;2.276;2022-11-30T09:41:50;99945.71;;;11.08;44.68
62592;BME280;48659;41.622;2.276;2022-11-30T09:44:29;99947.59;;;11.74;43.22
62592;BME280;48659;41.622;2.276;2022-11-30T09:47:08;99943.66;;;11.69;43.19
62592;BME280;48659;41.622;2.276;2022-11-30T09:49:43;99942.01;;;11.41;42.22
62592;BME280;48659;41.622;2.276;2022-11-30T09:52:16;99940.55;;;12.11;42.12
62592;BME280;48659;41.622;2.276;2022-11-30T09:54:47;99939.23;;;11.35;42.14
62592;BME280;48659;41.622;2.276;2022-11-30T09:57:25;99936.46;;;12.97;40.56
62592;BME280;48659;41.622;2.276;2022-11-30T09:59:56;99938.62;;;12.73;41.07
62592;BME280;48659;41.622;2.276;2022-11-30T10:02:28;99937.93;;;12.83;41.18
62592;BME280;48659;41.622;2.276;2022-11-30T10:04:57;99935.75;;;12.31;40.58
62592;BME280;48659;41.622;2.276;2022-11-30T10:07:40;99934.85;;;12.69;41.03
62592;BME280;48659;41.622;2.276;2022-11-30T10:10:21;99930.57;;;12.96;40.90
62592;BME280;48659;41.622;2.276;2022-11-30T10:13:02;99931.75;;;12.61;40.76
62592;BME280;48659;41.622;2.276;2022-11-30T10:15:44;99932.03;;;12.55;40.94
62592;BME280;48659;41.622;2.276;2022-11-30T10:18:21;99933.16;;;12.82;40.68
62592;BME280;48659;41.622;2.276;2022-11-30T10:21:00;99930.47;;;13.03;40.79
62592;BME280;48659;41.622;2.276;2022-11-30T10:23:45;99935.36;;;13.06;40.30
62592;BME280;48659;41.622;2.276;2022-11-30T10:26:22;99928.07;;;13.09;40.17
62592;BME280;48659;41.622;2.276;2022-11-30T10:28:54;99927.04;;;11.72;40.49
62592;BME280;48659;41.622;2.276;2022-11-30T10:31:28;99924.79;;;13.72;39.66
62592;BME280;48659;41.622;2.276;2022-11-30T10:34:02;99925.36;;;10.87;42.77
62592;BME280;48659;41.622;2.276;2022-11-30T10:36:41;99916.34;;;12.59;40.24
62592;BME280;48659;41.622;2.276;2022-11-30T10:39:17;99912.33;;;13.26;40.20
62592;BME280;48659;41.622;2.276;2022-11-30T10:41:51;99909.85;;;13.24;39.80
62592;BME280;48659;41.622;2.276;2022-11-30T10:44:24;99905.11;;;13.20;42.12
62592;BME280;48659;41.622;2.276;2022-11-30T10:46:58;99902.88;;;10.86;44.08
62592;BME280;48659;41.622;2.276;2022-11-30T10:49:28;99896.33;;;13.08;42.09
62592;BME280;48659;41.622;2.276;2022-11-30T10:52:10;99893.80;;;12.89;41.19
62592;BME280;48659;41.622;2.276;2022-11-30T10:54:40;99888.58;;;13.13;40.38
62592;BME280;48659;41.622;2.276;2022-11-30T10:57:08;99882.79;;;13.73;40.05
62592;BME280;48659;41.622;2.276;2022-11-30T10:59:43;99886.71;;;11.01;43.19
62592;BME280;48659;41.622;2.276;2022-11-30T11:02:35;99881.06;;;13.28;42.69
62592;BME280;48659;41.622;2.276;2022-11-30T11:05:17;99879.11;;;12.94;41.10
62592;BME280;48659;41.622;2.276;2022-11-30T11:07:56;99878.92;;;13.86;41.13
62592;BME280;48659;41.622;2.276;2022-11-30T11:10:30;99877.48;;;13.76;40.06
62592;BME280;48659;41.622;2.276;2022-11-30T11:13:02;99878.92;;;13.74;39.96
62592;BME280;48659;41.622;2.276;2022-11-30T11:15:32;99873.28;;;13.74;40.01
62592;BME280;48659;41.622;2.276;2022-11-30T11:18:35;99871.51;;;13.11;40.38
62592;BME280;48659;41.622;2.276;2022-11-30T11:21:05;99864.85;;;12.08;42.76
62592;BME280;48659;41.622;2.276;2022-11-30T11:23:41;99862.90;;;11.00;43.82
62592;BME280;48659;41.622;2.276;2022-11-30T11:26:17;99856.46;;;13.22;40.37
62592;BME280;48659;41.622;2.276;2022-11-30T11:28:49;99853.77;;;12.32;40.46
62592;BME280;48659;41.622;2.276;2022-11-30T11:31:32;99848.54;;;14.34;39.27
62592;BME280;48659;41.622;2.276;2022-11-30T11:34:03;99847.44;;;13.74;39.81
62592;BME280;48659;41.622;2.276;2022-11-30T11:36:33;99840.44;;;14.07;39.24
62592;BME280;48659;41.622;2.276;2022-11-30T11:39:01;99836.39;;;14.30;39.33
62592;BME280;48659;41.622;2.276;2022-11-30T11:41:33;99830.52;;;14.39;39.34
62592;BME280;48659;41.622;2.276;2022-11-30T11:44:04;99831.10;;;14.43;38.80
62592;BME280;48659;41.622;2.276;2022-11-30T11:46:53;99828.30;;;13.68;39.92
62592;BME280;48659;41.622;2.276;2022-11-30T11:49:23;99824.09;;;14.38;39.81
62592;BME280;48659;41.622;2.276;2022-11-30T11:51:59;99825.27;;;13.89;39.88
62592;BME280;48659;41.622;2.276;2022-11-30T11:54:32;99814.01;;;14.61;38.64
62592;BME280;48659;41.622;2.276;2022-11-30T11:57:02;99819.83;;;13.95;39.51
62592;BME280;48659;41.622;2.276;2022-11-30T11:59:39;99816.67;;;13.60;39.53
62592;BME280;48659;41.622;2.276;2022-11-30T12:02:19;99813.98;;;14.19;39.25
62592;BME280;48659;41.622;2.276;2022-11-30T12:04:50;99812.87;;;14.03;39.15
62592;BME280;48659;41.622;2.276;2022-11-30T12:07:26;99806.00;;;14.15;38.43
62592;BME280;48659;41.622;2.276;2022-11-30T12:10:14;99803.30;;;14.05;38.25
62592;BME280;48659;41.622;2.276;2022-11-30T12:12:46;99809.02;;;13.14;39.81
62592;BME280;48659;41.622;2.276;2022-11-30T12:15:14;99799.17;;;13.01;40.46
62592;BME280;48659;41.622;2.276;2022-11-30T12:17:50;99798.25;;;14.97;38.42
62592;BME280;48659;41.622;2.276;2022-11-30T12:20:25;99793.16;;;14.50;38.97
62592;BME280;48659;41.622;2.276;2022-11-30T12:23:11;99795.30;;;14.40;38.58
62592;BME280;48659;41.622;2.276;2022-11-30T12:25:48;99790.14;;;14.52;37.74
62592;BME280;48659;41.622;2.276;2022-11-30T12:28:26;99789.08;;;14.91;38.34
62592;BME280;48659;41.622;2.276;2022-11-30T12:31:10;99787.58;;;14.92;37.93
62592;BME280;48659;41.622;2.276;2022-11-30T12:33:49;99794.87;;;13.13;41.54
62592;BME280;48659;41.622;2.276;2022-11-30T12:36:31;99788.96;;;13.51;40.67
62592;BME280;48659;41.622;2.276;2022-11-30T12:39:08;99782.49;;;15.00;39.46
62592;BME280;48659;41.622;2.276;2022-11-30T12:41:44;99777.34;;;13.98;39.22
62592;BME280;48659;41.622;2.276;2022-11-30T12:44:24;99784.69;;;12.80;42.21
62592;BME280;48659;41.622;2.276;2022-11-30T12:47:04;99769.40;;;13.29;39.32
62592;BME280;48659;41.622;2.276;2022-11-30T12:49:49;99765.32;;;14.95;37.90
62592;BME280;48659;41.622;2.276;2022-11-30T12:52:39;99760.60;;;15.25;39.85
62592;BME280;48659;41.622;2.276;2022-11-30T12:55:23;99755.61;;;15.07;38.99
62592;BME280;48659;41.622;2.276;2022-11-30T12:58:00;99752.33;;;15.02;38.35
62592;BME280;48659;41.622;2.276;2022-11-30T13:00:42;99747.71;;;14.82;39.58
62592;BME280;48659;41.622;2.276;2022-11-30T13:03:51;99745.31;;;15.14;39.09
62592;BME280;48659;41.622;2.276;2022-11-30T13:06:25;99749.89;;;13.56;40.75
62592;BME280;48659;41.622;2.276;2022-11-30T13:08:59;99749.91;;;14.80;39.13
62592;BME280;48659;41.622;2.276;2022-11-30T13:11:35;99746.02;;;13.78;39.61
62592;BME280;48659;41.622;2.276;2022-11-30T13:14:08;99751.51;;;13.21;40.26
62592;BME280;48659;41.622;2.276;2022-11-30T13:16:40;99743.97;;;13.72;40.01
62592;BME280;48659;41.622;2.276;2022-11-30T13:19:25;99741.45;;;15.25;38.01
62592;BME280;48659;41.622;2.276;2022-11-30T13:22:02;99745.37;;;13.54;41.53
62592;BME280;48659;41.622;2.276;2022-11-30T13:24:36;99740.48;;;13.93;40.50
62592;BME280;48659;41.622;2.276;2022-11-30T13:27:09;99735.27;;;13.57;40.76
62592;BME280;48659;41.622;2.276;2022-11-30T13:29:53;99744.36;;;12.36;43.15
62592;BME280;48659;41.622;2.276;2022-11-30T13:32:25;99743.89;;;11.68;44.88